Swansea, Tasmania

6:27 AM AEST on July 24, 2016 (GMT +1000)
The Grange Hills Swansea | | Change Station

Elev 79 ft 42.04 °S, 148.08 °E | Updated 1 minute ago

Scattered Clouds
Scattered Clouds
36.7 °F
Feels Like 37 °F
N
0.0
Wind Variable Wind from East
Gusts 0.0 mph

Today
High -- | Low -- °F
--% Chance of Precip.
Yesterday
High -- | Low -- °F
Precip. -- in
Pressure 29.65 in
Visibility 6.2 miles
Clouds Few 4000 ft
Scattered Clouds 6300 ft
Windchill 37 °F
Dew Point 29 °F
Humidity 74%
Rainfall 0.00 in
Snow Depth Not available.
7:25 AM 5:03 PM
Waning Gibbous, 83% visible
METAR YMHB 232000Z 27004KT 240V310 9999 FEW040 SCT063 04/M01 Q1004
Pressure 29.65 in
Visibility 6.2 miles
Clouds Few 4000 ft
Scattered Clouds 6300 ft
Windchill 37 °F
Dew Point 29 °F
Humidity 74%
Rainfall 0.00 in
Snow Depth Not available.
7:25 AM 5:03 PM
Waning Gibbous, 83% visible
METAR YMHB 232000Z 27004KT 240V310 9999 FEW040 SCT063 04/M01 Q1004

10-Day Weather Forecast

Almanac

Astronomy

Jul. 24, 2016 Rise Set
Actual Time
Civil Twilight
Nautical Twilight
Astronomical Twilight
Moon
Length of Visible Light
Length of Day
Tomorrow will be .
, % of the Moon is Illuminated

Today's Extremes

Country Highs Country Lows

Community

WunderPhotos

Upload Photos

1,926,916 photos uploaded!

WunderBlog® & News

Nearby

Air Quality

  Air Quality AQ Index Pollutant
Not available.

Snow Depth

Station Depth Elevation

Earthquake Activity

City Distance Mag. Time & Date
Minimum magnitude displayed is 2.5.

Coastal Water Temperatures

Place Temperature

Stations

Nearby Weather Stations

Station Location Temp. Windchill Dew Point Humidity Wind Precip. Elev Updated Type